createdAt,value
2023-02-09T00:00:08.575Z,93.77
2023-02-09T00:02:35.626Z,88.37
2023-02-09T00:05:02.166Z,91.97
2023-02-09T00:07:28.791Z,94.13
2023-02-09T00:09:55.364Z,84.10
2023-02-09T00:12:40.410Z,99.90
2023-02-09T00:15:07.782Z,89.67
2023-02-09T00:17:35.854Z,93.23
2023-02-09T00:20:06.322Z,90.57
2023-02-09T00:22:33.404Z,90.77
2023-02-09T00:24:59.940Z,84.07
2023-02-09T00:27:26.404Z,90.63
2023-02-09T00:29:53.085Z,87.40
2023-02-09T00:32:19.563Z,93.00
2023-02-09T00:34:46.045Z,98.57
2023-02-09T00:37:12.946Z,91.53
2023-02-09T00:39:39.392Z,89.57
2023-02-09T00:42:05.900Z,98.77
2023-02-09T00:44:36.102Z,91.27
2023-02-09T00:47:03.085Z,91.40
2023-02-09T00:49:29.904Z,89.17
2023-02-09T00:51:56.443Z,92.57
2023-02-09T00:54:23.155Z,94.57
2023-02-09T00:56:49.829Z,91.97
2023-02-09T00:59:16.730Z,97.07
2023-02-09T01:01:43.198Z,92.17
2023-02-09T01:04:09.730Z,91.37
2023-02-09T01:06:36.175Z,93.87
2023-02-09T01:09:03.165Z,98.03
2023-02-09T01:11:30.306Z,83.43
2023-02-09T01:13:57.952Z,93.40
2023-02-09T01:16:25.059Z,92.47
2023-02-09T01:18:51.579Z,87.27
2023-02-09T01:21:20.853Z,93.20
2023-02-09T01:23:48.306Z,77.10
2023-02-09T01:26:16.170Z,94.37
2023-02-09T01:28:42.909Z,90.67
2023-02-09T01:31:23.117Z,92.37
2023-02-09T01:33:50.292Z,92.13
2023-02-09T01:36:16.948Z,85.87
2023-02-09T01:38:43.403Z,91.00
2023-02-09T01:41:10.580Z,94.33
2023-02-09T01:43:55.558Z,89.93
2023-02-09T01:46:23.772Z,77.63
2023-02-09T01:48:53.416Z,92.07
2023-02-09T01:51:20.350Z,91.73
2023-02-09T01:53:47.628Z,99.03
2023-02-09T01:56:20.498Z,89.70
2023-02-09T01:58:47.875Z,96.27
2023-02-09T02:01:14.657Z,90.87
2023-02-09T02:03:41.376Z,88.70
2023-02-09T02:06:12.890Z,83.83
2023-02-09T02:08:55.555Z,79.10
2023-02-09T02:11:23.680Z,81.97
2023-02-09T02:13:50.295Z,73.73
2023-02-09T02:16:36.164Z,80.30
2023-02-09T02:19:37.241Z,80.03
2023-02-09T02:22:17.784Z,87.97
2023-02-09T02:24:53.195Z,83.57
2023-02-09T02:27:32.087Z,88.77
2023-02-09T02:30:35.110Z,85.20
2023-02-09T02:33:31.253Z,87.17
2023-02-09T02:36:06.648Z,93.07
2023-02-09T02:38:39.962Z,87.30
2023-02-09T02:41:15.253Z,89.17
2023-02-09T02:43:59.884Z,82.63
2023-02-09T02:46:46.376Z,80.60
2023-02-09T02:49:27.610Z,87.57
2023-02-09T02:51:56.769Z,83.00
2023-02-09T02:54:30.148Z,84.87
2023-02-09T02:57:01.724Z,80.10
2023-02-09T02:59:33.448Z,79.27
2023-02-09T03:02:07.286Z,83.70
2023-02-09T03:04:34.658Z,90.00
2023-02-09T03:07:01.332Z,83.10
2023-02-09T03:09:28.002Z,85.40
2023-02-09T03:11:57.845Z,81.47
2023-02-09T03:14:29.897Z,83.40
2023-02-09T03:17:27.980Z,74.00
2023-02-09T03:20:04.183Z,80.10
2023-02-09T03:22:35.100Z,81.73
2023-02-09T03:25:07.876Z,83.50
2023-02-09T03:27:48.144Z,83.40
2023-02-09T03:30:17.252Z,81.27
2023-02-09T03:32:45.790Z,83.43
2023-02-09T03:35:15.477Z,81.80
2023-02-09T03:37:42.216Z,80.33
2023-02-09T03:40:09.807Z,83.40
2023-02-09T03:42:36.439Z,82.83
2023-02-09T03:45:02.972Z,83.13
2023-02-09T03:47:30.754Z,70.97
2023-02-09T03:49:58.481Z,83.77
2023-02-09T03:52:25.153Z,83.00
2023-02-09T03:54:51.637Z,76.97
2023-02-09T03:57:18.081Z,77.30
2023-02-09T03:59:44.524Z,82.00
2023-02-09T04:02:11.552Z,73.47
2023-02-09T04:04:38.142Z,75.63
2023-02-09T04:07:04.886Z,77.20
2023-02-09T04:09:31.350Z,76.27
2023-02-09T04:11:58.078Z,78.00
2023-02-09T04:14:24.690Z,75.83
2023-02-09T04:16:51.354Z,84.27
2023-02-09T04:19:17.932Z,79.43
2023-02-09T04:21:44.428Z,82.37
2023-02-09T04:24:10.915Z,80.57
2023-02-09T04:26:37.523Z,79.67
2023-02-09T04:29:04.693Z,78.37
2023-02-09T04:31:31.787Z,77.70
2023-02-09T04:33:58.422Z,78.50
2023-02-09T04:36:24.926Z,75.70
2023-02-09T04:38:51.526Z,78.40
2023-02-09T04:41:18.141Z,79.40
2023-02-09T04:43:46.228Z,83.30
2023-02-09T04:46:16.983Z,82.97
2023-02-09T04:48:44.056Z,81.20
2023-02-09T04:51:10.601Z,82.63
2023-02-09T04:53:37.385Z,84.30
2023-02-09T04:56:04.366Z,84.77
2023-02-09T04:58:49.351Z,77.13
2023-02-09T05:01:19.669Z,75.90
2023-02-09T05:03:46.201Z,80.67
2023-02-09T05:06:12.993Z,83.53
2023-02-09T05:08:39.544Z,87.00
2023-02-09T05:11:06.421Z,86.00
2023-02-09T05:13:32.867Z,89.33
2023-02-09T05:15:59.452Z,79.07
2023-02-09T05:18:25.932Z,78.53
2023-02-09T05:20:52.637Z,77.40
2023-02-09T05:23:19.353Z,81.47
2023-02-09T05:25:46.136Z,87.50
2023-02-09T05:28:13.120Z,83.50
2023-02-09T05:30:39.718Z,92.47
2023-02-09T05:33:06.221Z,86.57
2023-02-09T05:35:32.818Z,81.73
2023-02-09T05:37:59.424Z,85.73
2023-02-09T05:40:25.938Z,83.97
2023-02-09T05:42:52.493Z,97.67
2023-02-09T05:45:19.172Z,93.80
2023-02-09T05:47:46.403Z,94.67
2023-02-09T05:50:12.966Z,87.87
2023-02-09T05:52:39.550Z,93.90
2023-02-09T05:55:06.318Z,93.53
2023-02-09T05:57:32.869Z,87.43
2023-02-09T05:59:59.402Z,94.07
2023-02-09T06:02:25.980Z,87.30
2023-02-09T06:04:52.545Z,86.90
2023-02-09T06:07:19.074Z,88.33
2023-02-09T06:09:45.657Z,91.80
2023-02-09T06:12:12.306Z,91.77
2023-02-09T06:14:38.841Z,90.33
2023-02-09T06:17:05.346Z,92.10
2023-02-09T06:19:31.991Z,79.20
2023-02-09T06:21:58.780Z,81.73
2023-02-09T06:24:25.439Z,85.10
2023-02-09T06:26:51.928Z,83.30
2023-02-09T06:29:18.555Z,84.97
2023-02-09T06:31:45.115Z,86.93
2023-02-09T06:34:11.889Z,82.23
2023-02-09T06:36:38.401Z,87.03
2023-02-09T06:39:09.527Z,83.37
2023-02-09T06:41:36.422Z,86.67
2023-02-09T06:44:03.606Z,90.73
2023-02-09T06:46:30.186Z,81.60
2023-02-09T06:48:57.629Z,76.67
2023-02-09T06:51:26.110Z,86.43
2023-02-09T06:53:52.692Z,84.87
2023-02-09T06:56:20.311Z,94.93
2023-02-09T06:58:46.808Z,82.50
2023-02-09T07:01:15.844Z,88.33
2023-02-09T07:03:43.190Z,81.03
2023-02-09T07:06:12.982Z,82.33
2023-02-09T07:08:40.850Z,84.23
2023-02-09T07:11:10.193Z,87.17
2023-02-09T07:13:36.951Z,96.23
2023-02-09T07:16:08.775Z,88.00
2023-02-09T07:18:35.736Z,83.87
2023-02-09T07:21:08.638Z,88.53
2023-02-09T07:23:35.499Z,87.87
2023-02-09T07:26:07.348Z,93.73
2023-02-09T07:28:35.718Z,90.40
2023-02-09T07:31:05.015Z,79.27
2023-02-09T07:33:32.149Z,82.40
2023-02-09T07:35:58.645Z,84.83
2023-02-09T07:38:25.345Z,89.73
2023-02-09T07:40:51.970Z,87.23
2023-02-09T07:43:18.504Z,86.17
2023-02-09T07:45:45.301Z,82.33
2023-02-09T07:48:12.142Z,88.50
2023-02-09T07:50:39.044Z,91.53
2023-02-09T07:53:05.642Z,94.60
2023-02-09T07:55:32.214Z,83.20
2023-02-09T07:57:58.754Z,83.97
2023-02-09T08:00:25.624Z,79.13
2023-02-09T08:02:52.425Z,88.47
2023-02-09T08:05:28.568Z,88.73
2023-02-09T08:07:56.019Z,82.87
2023-02-09T08:10:23.262Z,92.10
2023-02-09T08:13:05.043Z,87.57
2023-02-09T08:15:37.365Z,88.10
2023-02-09T08:18:07.260Z,90.83
2023-02-09T08:20:33.905Z,87.40
2023-02-09T08:23:05.572Z,85.00
2023-02-09T08:25:33.092Z,84.37
2023-02-09T08:27:59.762Z,87.50
2023-02-09T08:30:26.377Z,83.57
2023-02-09T08:32:53.028Z,79.07
2023-02-09T08:35:19.648Z,80.03
2023-02-09T08:37:46.419Z,67.93
2023-02-09T08:40:15.073Z,65.40
2023-02-09T08:42:41.716Z,67.00
2023-02-09T08:45:08.849Z,77.23
2023-02-09T08:47:35.703Z,67.77
2023-02-09T08:50:02.387Z,68.97
2023-02-09T08:52:29.277Z,60.13
2023-02-09T08:54:55.848Z,72.77
2023-02-09T08:57:24.224Z,68.30
2023-02-09T08:59:54.043Z,65.53
2023-02-09T09:02:20.625Z,67.50
2023-02-09T09:04:48.102Z,65.70
2023-02-09T09:07:14.663Z,67.67
2023-02-09T09:09:41.308Z,80.90
2023-02-09T09:12:08.010Z,71.00
2023-02-09T09:14:34.732Z,72.00
2023-02-09T09:17:01.445Z,66.93
2023-02-09T09:19:29.269Z,70.93
2023-02-09T09:21:56.825Z,70.10
2023-02-09T09:24:28.010Z,69.00
2023-02-09T09:26:55.510Z,68.03
2023-02-09T09:29:22.295Z,71.97
2023-02-09T09:31:48.936Z,67.23
2023-02-09T09:34:15.627Z,71.40
2023-02-09T09:36:42.256Z,66.47
2023-02-09T09:39:08.837Z,71.90
2023-02-09T09:41:37.525Z,80.37
2023-02-09T09:44:13.267Z,75.77
2023-02-09T09:46:42.148Z,76.50
2023-02-09T09:49:19.863Z,70.73
2023-02-09T09:51:48.320Z,75.97
2023-02-09T09:54:21.444Z,82.70
2023-02-09T09:56:48.759Z,73.43
2023-02-09T09:59:21.629Z,71.33
2023-02-09T10:01:50.864Z,69.83
2023-02-09T10:04:20.992Z,73.40
2023-02-09T10:06:52.723Z,69.77
2023-02-09T10:09:37.616Z,69.80
2023-02-09T10:12:22.979Z,70.50
2023-02-09T10:14:52.189Z,75.33
2023-02-09T10:17:18.734Z,66.50
2023-02-09T10:20:00.676Z,58.10
2023-02-09T10:22:27.428Z,63.40
2023-02-09T10:24:54.093Z,79.10
2023-02-09T10:27:31.433Z,64.00
2023-02-09T10:30:17.588Z,74.03
2023-02-09T10:32:44.459Z,68.63
2023-02-09T10:35:27.422Z,69.27
2023-02-09T10:38:01.552Z,65.83
2023-02-09T10:40:31.363Z,68.93
2023-02-09T10:43:00.162Z,79.27
2023-02-09T10:45:28.263Z,62.00
2023-02-09T10:48:13.443Z,60.63
2023-02-09T10:51:01.994Z,58.70
2023-02-09T10:53:31.875Z,66.40
2023-02-09T10:56:02.928Z,59.20
2023-02-09T10:58:32.322Z,62.03
2023-02-09T11:01:07.308Z,54.73
2023-02-09T11:03:33.983Z,56.50
2023-02-09T11:06:15.525Z,55.97
2023-02-09T11:08:46.877Z,63.50
2023-02-09T11:11:23.676Z,54.57
2023-02-09T11:13:50.376Z,44.93
2023-02-09T11:16:30.143Z,54.30
2023-02-09T11:19:02.054Z,53.40
2023-02-09T11:22:03.007Z,49.70
2023-02-09T11:24:45.396Z,54.47
2023-02-09T11:27:23.625Z,50.80
2023-02-09T11:30:00.868Z,47.07
2023-02-09T11:32:35.794Z,53.67
2023-02-09T11:35:13.612Z,35.00
2023-02-09T11:38:00.938Z,36.97
2023-02-09T11:40:38.356Z,35.57
2023-02-09T11:43:10.910Z,32.73
2023-02-09T11:45:37.678Z,38.27
2023-02-09T11:48:24.373Z,39.77
2023-02-09T11:51:13.573Z,34.57
2023-02-09T11:53:54.144Z,36.97
2023-02-09T11:56:23.205Z,34.77
2023-02-09T11:59:19.041Z,42.90
2023-02-09T12:02:01.924Z,39.30
2023-02-09T12:04:49.942Z,35.27
2023-02-09T12:07:35.280Z,33.13
2023-02-09T12:10:10.786Z,33.37
2023-02-09T12:13:19.274Z,38.60
2023-02-09T12:15:49.411Z,38.17
2023-02-09T12:18:19.300Z,37.27
2023-02-09T12:21:00.247Z,39.50
2023-02-09T12:23:34.799Z,37.10
2023-02-09T12:26:16.429Z,35.10
2023-02-09T12:29:04.810Z,38.23
2023-02-09T12:31:32.296Z,40.57
2023-02-09T12:33:58.995Z,40.70
2023-02-09T12:36:32.555Z,45.20
2023-02-09T12:39:25.090Z,44.27
2023-02-09T12:41:51.622Z,40.47
2023-02-09T12:44:19.416Z,40.47
2023-02-09T12:46:48.467Z,45.27
2023-02-09T12:49:15.798Z,43.10
2023-02-09T12:51:55.539Z,47.13
2023-02-09T12:54:42.020Z,43.63
2023-02-09T12:57:14.814Z,39.13
2023-02-09T12:59:50.879Z,35.43
2023-02-09T13:02:35.735Z,44.57
2023-02-09T13:05:07.581Z,39.63
2023-02-09T13:07:34.031Z,46.80
2023-02-09T13:10:16.300Z,40.20
2023-02-09T13:12:47.390Z,41.13
2023-02-09T13:15:16.849Z,51.77
2023-02-09T13:18:06.371Z,39.07
2023-02-09T13:21:00.810Z,35.93
2023-02-09T13:23:33.356Z,36.30
2023-02-09T13:26:21.303Z,39.40
2023-02-09T13:28:48.311Z,37.17
2023-02-09T13:31:34.623Z,39.70
2023-02-09T13:34:27.572Z,41.03
2023-02-09T13:37:17.333Z,37.17
2023-02-09T13:39:44.263Z,37.50
2023-02-09T13:42:22.921Z,36.37
2023-02-09T13:44:54.684Z,40.73
2023-02-09T13:47:21.792Z,40.87
2023-02-09T13:50:03.530Z,38.47
2023-02-09T13:52:38.652Z,37.07
2023-02-09T13:55:19.640Z,39.63
2023-02-09T13:58:07.263Z,30.63
2023-02-09T14:00:44.426Z,30.43
2023-02-09T14:03:29.389Z,41.50
2023-02-09T14:06:14.063Z,34.63
2023-02-09T14:08:40.916Z,38.17
2023-02-09T14:11:41.931Z,28.60
2023-02-09T14:14:21.207Z,38.17
2023-02-09T14:16:53.778Z,30.60
2023-02-09T14:19:30.461Z,30.70
2023-02-09T14:21:57.199Z,30.93
2023-02-09T14:24:25.350Z,28.90
2023-02-09T14:26:55.658Z,32.27
2023-02-09T14:29:23.476Z,29.97
2023-02-09T14:31:58.339Z,32.77
2023-02-09T14:34:27.882Z,29.23
2023-02-09T14:36:57.188Z,31.90
2023-02-09T14:39:23.652Z,30.00
2023-02-09T14:42:14.970Z,30.50
2023-02-09T14:45:13.544Z,33.10
2023-02-09T14:47:43.991Z,35.43
2023-02-09T14:50:20.544Z,32.80
2023-02-09T14:52:48.386Z,29.63
2023-02-09T14:55:26.371Z,33.77
2023-02-09T14:57:52.931Z,35.67
2023-02-09T15:00:28.236Z,33.20
2023-02-09T15:02:55.320Z,27.30
2023-02-09T15:05:23.018Z,29.70
2023-02-09T15:07:53.551Z,36.67
2023-02-09T15:10:22.680Z,29.20
2023-02-09T15:12:49.416Z,32.87
2023-02-09T15:15:18.659Z,35.43
2023-02-09T15:17:45.508Z,33.67
2023-02-09T15:20:16.512Z,35.83
2023-02-09T15:22:43.509Z,37.47
2023-02-09T15:25:13.663Z,35.30
2023-02-09T15:27:52.465Z,30.60
2023-02-09T15:30:24.431Z,34.03
2023-02-09T15:32:51.558Z,36.73
2023-02-09T15:35:20.450Z,39.57
2023-02-09T15:37:49.512Z,35.93
2023-02-09T15:40:42.997Z,35.83
2023-02-09T15:43:30.483Z,34.33
2023-02-09T15:46:06.022Z,39.13
2023-02-09T15:48:32.791Z,45.77
2023-02-09T15:51:00.107Z,41.60
2023-02-09T15:53:26.978Z,42.90
2023-02-09T15:55:54.629Z,41.47
2023-02-09T15:58:35.899Z,43.50
2023-02-09T16:01:02.987Z,43.37
2023-02-09T16:03:31.614Z,39.57
2023-02-09T16:06:00.627Z,42.50
2023-02-09T16:08:30.318Z,39.63
2023-02-09T16:10:56.859Z,44.50
2023-02-09T16:13:23.541Z,39.17
2023-02-09T16:15:50.192Z,47.13
2023-02-09T16:18:16.747Z,41.57
2023-02-09T16:20:47.011Z,45.83
2023-02-09T16:23:21.310Z,44.23
2023-02-09T16:25:49.880Z,47.23
2023-02-09T16:28:17.057Z,43.17
2023-02-09T16:30:55.213Z,45.47
2023-02-09T16:33:23.765Z,49.07
2023-02-09T16:35:54.895Z,45.70
2023-02-09T16:38:22.477Z,44.00
2023-02-09T16:40:49.539Z,43.83
2023-02-09T16:43:16.599Z,47.40
2023-02-09T16:45:53.950Z,44.60
2023-02-09T16:48:30.182Z,50.33
2023-02-09T16:50:56.843Z,43.27
2023-02-09T16:53:35.443Z,45.80
2023-02-09T16:56:04.902Z,48.47
2023-02-09T16:58:32.039Z,51.50
2023-02-09T17:00:58.715Z,47.13
2023-02-09T17:03:33.132Z,54.80
2023-02-09T17:05:59.637Z,46.80
2023-02-09T17:08:32.606Z,50.43
2023-02-09T17:11:00.019Z,52.10
2023-02-09T17:13:26.794Z,46.10
2023-02-09T17:16:00.176Z,53.93
2023-02-09T17:18:29.896Z,48.73
2023-02-09T17:21:21.778Z,45.70
2023-02-09T17:23:48.551Z,45.53
2023-02-09T17:26:15.416Z,47.93
2023-02-09T17:28:43.031Z,43.90
2023-02-09T17:31:36.107Z,53.90
2023-02-09T17:34:08.681Z,42.77
2023-02-09T17:36:35.571Z,43.80
2023-02-09T17:39:02.201Z,45.97
2023-02-09T17:41:33.727Z,51.83
2023-02-09T17:44:28.610Z,42.67
2023-02-09T17:46:58.348Z,49.17
2023-02-09T17:49:25.066Z,55.93
2023-02-09T17:51:52.847Z,46.27
2023-02-09T17:54:20.528Z,48.93
2023-02-09T17:56:47.355Z,44.40
2023-02-09T17:59:14.795Z,47.03
2023-02-09T18:01:46.226Z,49.37
2023-02-09T18:04:18.701Z,48.27
2023-02-09T18:06:45.213Z,48.00
2023-02-09T18:09:13.001Z,44.00
2023-02-09T18:11:45.890Z,56.67
2023-02-09T18:14:13.918Z,43.87
2023-02-09T18:16:41.338Z,44.03
2023-02-09T18:19:08.721Z,45.87
2023-02-09T18:21:35.261Z,47.40
2023-02-09T18:24:01.764Z,49.37
2023-02-09T18:26:28.404Z,44.60
2023-02-09T18:28:54.951Z,49.23
2023-02-09T18:31:21.528Z,49.73
2023-02-09T18:33:48.098Z,52.27
2023-02-09T18:36:15.191Z,48.20
2023-02-09T18:38:41.746Z,52.17
2023-02-09T18:41:14.471Z,54.73
2023-02-09T18:43:41.073Z,51.80
2023-02-09T18:46:07.768Z,43.10
2023-02-09T18:48:34.276Z,53.57
2023-02-09T18:51:00.827Z,50.73
2023-02-09T18:53:27.308Z,49.20
2023-02-09T18:55:54.038Z,49.40
2023-02-09T18:58:20.598Z,41.57
2023-02-09T19:00:47.200Z,54.23
2023-02-09T19:03:13.979Z,46.37
2023-02-09T19:05:40.939Z,54.57
2023-02-09T19:08:07.724Z,48.13
2023-02-09T19:10:35.992Z,51.83
2023-02-09T19:13:04.054Z,43.93
2023-02-09T19:15:32.596Z,44.27
2023-02-09T19:17:59.765Z,46.80
2023-02-09T19:20:30.562Z,54.20
2023-02-09T19:22:57.212Z,42.10
2023-02-09T19:25:26.177Z,52.67
2023-02-09T19:27:53.551Z,49.60
2023-02-09T19:30:24.902Z,49.53
2023-02-09T19:32:52.924Z,45.30
2023-02-09T19:35:22.273Z,45.37
2023-02-09T19:37:56.282Z,45.73
2023-02-09T19:40:36.025Z,48.23
2023-02-09T19:43:04.569Z,47.93
2023-02-09T19:45:36.267Z,46.00
2023-02-09T19:48:04.773Z,45.37
2023-02-09T19:50:31.368Z,44.60
2023-02-09T19:52:57.964Z,44.13
2023-02-09T19:55:24.819Z,44.80
2023-02-09T19:57:51.530Z,48.03
2023-02-09T20:00:18.593Z,43.27
2023-02-09T20:02:46.247Z,47.90
2023-02-09T20:05:14.749Z,50.00
2023-02-09T20:07:41.627Z,47.70
2023-02-09T20:10:09.086Z,44.80
2023-02-09T20:12:35.822Z,45.07
2023-02-09T20:15:02.638Z,46.73
2023-02-09T20:17:30.241Z,43.93
2023-02-09T20:19:56.867Z,50.20
2023-02-09T20:22:23.420Z,56.07
2023-02-09T20:24:50.137Z,53.90
2023-02-09T20:27:18.599Z,59.50
2023-02-09T20:29:45.067Z,45.17
2023-02-09T20:32:11.894Z,52.77
2023-02-09T20:34:38.390Z,41.13
2023-02-09T20:37:04.938Z,47.77
2023-02-09T20:39:31.516Z,50.23
2023-02-09T20:42:18.264Z,45.60
2023-02-09T20:45:03.350Z,50.40
2023-02-09T20:47:30.205Z,40.40
2023-02-09T20:49:59.868Z,55.80
2023-02-09T20:52:29.985Z,49.47
2023-02-09T20:54:57.013Z,46.67
2023-02-09T20:57:29.287Z,47.77
2023-02-09T20:59:59.812Z,49.93
2023-02-09T21:02:27.253Z,42.57
2023-02-09T21:04:55.361Z,46.40
2023-02-09T21:07:21.987Z,40.67
2023-02-09T21:09:48.470Z,40.70
2023-02-09T21:12:15.053Z,43.70
2023-02-09T21:14:45.043Z,45.07
2023-02-09T21:17:12.050Z,45.97
2023-02-09T21:19:38.626Z,47.70
2023-02-09T21:22:05.768Z,47.40
2023-02-09T21:24:32.573Z,38.73
2023-02-09T21:27:00.760Z,44.87
2023-02-09T21:29:31.273Z,45.93
2023-02-09T21:32:01.711Z,43.73
2023-02-09T21:34:28.278Z,52.67
2023-02-09T21:36:54.874Z,54.37
2023-02-09T21:39:21.467Z,45.50
2023-02-09T21:42:06.551Z,45.93
2023-02-09T21:44:35.185Z,44.63
2023-02-09T21:47:01.630Z,48.63
2023-02-09T21:49:31.464Z,54.60
2023-02-09T21:51:58.472Z,47.90
2023-02-09T21:54:26.216Z,54.40
2023-02-09T21:56:54.220Z,46.57
2023-02-09T21:59:20.719Z,53.63
2023-02-09T22:01:47.496Z,45.30
2023-02-09T22:04:14.110Z,42.60
2023-02-09T22:06:41.702Z,52.17
2023-02-09T22:09:08.562Z,49.00
2023-02-09T22:11:35.117Z,45.33
2023-02-09T22:14:01.914Z,44.23
2023-02-09T22:16:29.459Z,42.33
2023-02-09T22:18:56.734Z,52.37
2023-02-09T22:21:23.239Z,48.53
2023-02-09T22:23:52.345Z,41.17
2023-02-09T22:26:19.013Z,45.17
2023-02-09T22:28:46.714Z,45.23
2023-02-09T22:31:15.942Z,46.30
2023-02-09T22:33:42.942Z,38.90
2023-02-09T22:36:17.032Z,51.17
2023-02-09T22:38:46.889Z,44.53
2023-02-09T22:41:22.391Z,45.43
2023-02-09T22:43:49.773Z,46.13
2023-02-09T22:46:16.701Z,45.90
2023-02-09T22:48:43.368Z,50.13
2023-02-09T22:51:15.393Z,54.73
2023-02-09T22:53:41.980Z,48.27
2023-02-09T22:56:08.586Z,48.37
2023-02-09T22:58:35.185Z,48.73
2023-02-09T23:01:01.855Z,48.33
2023-02-09T23:03:28.323Z,47.30
2023-02-09T23:05:54.935Z,44.07
2023-02-09T23:08:23.052Z,43.57
2023-02-09T23:10:49.637Z,43.00
2023-02-09T23:13:16.185Z,45.87
2023-02-09T23:15:42.754Z,42.97
2023-02-09T23:18:09.444Z,45.03
2023-02-09T23:20:36.125Z,48.10
2023-02-09T23:23:06.630Z,44.43
2023-02-09T23:25:33.259Z,41.20
2023-02-09T23:27:59.791Z,44.53
2023-02-09T23:30:26.333Z,40.80
2023-02-09T23:32:52.874Z,40.20
2023-02-09T23:35:20.933Z,45.73
2023-02-09T23:37:47.384Z,39.03
2023-02-09T23:40:13.879Z,40.73
2023-02-09T23:42:40.402Z,39.37
2023-02-09T23:45:07.197Z,49.50
2023-02-09T23:47:33.773Z,40.30
2023-02-09T23:50:00.285Z,44.13
2023-02-09T23:52:26.844Z,40.50
2023-02-09T23:54:53.570Z,43.83
2023-02-09T23:57:23.323Z,39.77
2023-02-09T23:59:49.829Z,48.03
